sensor_id;sensor_type;location;lat;lon;timestamp;temperature;humidity
3208;DHT22;1616;52.394;9.756;2023-11-21T00:00:16;10.00;99.90
3208;DHT22;1616;52.394;9.756;2023-11-21T00:02:43;9.90;99.90
3208;DHT22;1616;52.394;9.756;2023-11-21T00:05:13;9.90;99.90
3208;DHT22;1616;52.394;9.756;2023-11-21T00:07:42;9.90;99.90
3208;DHT22;1616;52.394;9.756;2023-11-21T00:10:09;9.90;99.90
3208;DHT22;1616;52.394;9.756;2023-11-21T00:12:36;9.90;99.90
3208;DHT22;1616;52.394;9.756;2023-11-21T00:15:03;9.90;99.90
3208;DHT22;1616;52.394;9.756;2023-11-21T00:17:31;9.90;99.90
3208;DHT22;1616;52.394;9.756;2023-11-21T00:19:57;9.80;99.90
3208;DHT22;1616;52.394;9.756;2023-11-21T00:22:22;9.80;99.90
3208;DHT22;1616;52.394;9.756;2023-11-21T00:24:48;9.80;99.90
3208;DHT22;1616;52.394;9.756;2023-11-21T00:27:14;9.80;99.90
3208;DHT22;1616;52.394;9.756;2023-11-21T00:29:40;9.80;99.90
3208;DHT22;1616;52.394;9.756;2023-11-21T00:32:06;9.80;99.90
3208;DHT22;1616;52.394;9.756;2023-11-21T00:34:32;9.80;99.90
3208;DHT22;1616;52.394;9.756;2023-11-21T00:36:58;9.80;99.90
3208;DHT22;1616;52.394;9.756;2023-11-21T00:39:24;9.80;99.90
3208;DHT22;1616;52.394;9.756;2023-11-21T00:41:52;9.80;99.90
3208;DHT22;1616;52.394;9.756;2023-11-21T00:44:17;9.80;99.90
3208;DHT22;1616;52.394;9.756;2023-11-21T00:46:43;9.80;99.90
3208;DHT22;1616;52.394;9.756;2023-11-21T00:49:09;9.70;99.90
3208;DHT22;1616;52.394;9.756;2023-11-21T00:51:34;9.70;99.90
3208;DHT22;1616;52.394;9.756;2023-11-21T00:54:00;8.40;99.90
3208;DHT22;1616;52.394;9.756;2023-11-21T00:56:26;9.60;99.90
3208;DHT22;1616;52.394;9.756;2023-11-21T00:58:53;9.60;99.90
3208;DHT22;1616;52.394;9.756;2023-11-21T01:01:20;9.60;99.90
3208;DHT22;1616;52.394;9.756;2023-11-21T01:03:48;9.60;99.90
3208;DHT22;1616;52.394;9.756;2023-11-21T01:06:15;9.60;99.90
3208;DHT22;1616;52.394;9.756;2023-11-21T01:08:41;9.60;99.90
3208;DHT22;1616;52.394;9.756;2023-11-21T01:11:06;9.60;99.90
3208;DHT22;1616;52.394;9.756;2023-11-21T01:13:39;9.70;99.90
3208;DHT22;1616;52.394;9.756;2023-11-21T01:16:05;9.70;99.90
3208;DHT22;1616;52.394;9.756;2023-11-21T01:18:35;9.70;99.90
3208;DHT22;1616;52.394;9.756;2023-11-21T01:21:02;9.70;99.90
3208;DHT22;1616;52.394;9.756;2023-11-21T01:23:28;9.70;99.90
3208;DHT22;1616;52.394;9.756;2023-11-21T01:25:55;9.70;99.90
3208;DHT22;1616;52.394;9.756;2023-11-21T01:28:21;9.70;99.90
3208;DHT22;1616;52.394;9.756;2023-11-21T01:30:47;9.70;99.90
3208;DHT22;1616;52.394;9.756;2023-11-21T01:33:13;9.70;99.90
3208;DHT22;1616;52.394;9.756;2023-11-21T01:35:41;9.70;99.90
3208;DHT22;1616;52.394;9.756;2023-11-21T01:38:08;9.70;99.90
3208;DHT22;1616;52.394;9.756;2023-11-21T01:40:34;9.70;99.90
3208;DHT22;1616;52.394;9.756;2023-11-21T01:43:00;9.70;99.90
3208;DHT22;1616;52.394;9.756;2023-11-21T01:45:29;9.70;99.90
3208;DHT22;1616;52.394;9.756;2023-11-21T01:47:56;9.70;99.90
3208;DHT22;1616;52.394;9.756;2023-11-21T01:50:24;9.70;99.90
3208;DHT22;1616;52.394;9.756;2023-11-21T01:52:50;9.70;99.90
3208;DHT22;1616;52.394;9.756;2023-11-21T01:55:17;9.70;99.90
3208;DHT22;1616;52.394;9.756;2023-11-21T01:57:46;9.60;99.90
3208;DHT22;1616;52.394;9.756;2023-11-21T02:00:14;9.60;99.90
3208;DHT22;1616;52.394;9.756;2023-11-21T02:02:47;9.60;99.90
3208;DHT22;1616;52.394;9.756;2023-11-21T02:05:18;9.60;99.90
3208;DHT22;1616;52.394;9.756;2023-11-21T02:07:44;9.60;99.90
3208;DHT22;1616;52.394;9.756;2023-11-21T02:10:11;9.60;99.90
3208;DHT22;1616;52.394;9.756;2023-11-21T02:12:57;9.50;99.90
3208;DHT22;1616;52.394;9.756;2023-11-21T02:15:23;9.50;99.90
3208;DHT22;1616;52.394;9.756;2023-11-21T02:17:52;9.50;99.90
3208;DHT22;1616;52.394;9.756;2023-11-21T02:20:21;9.50;99.90
3208;DHT22;1616;52.394;9.756;2023-11-21T02:22:52;9.40;99.90
3208;DHT22;1616;52.394;9.756;2023-11-21T02:25:30;9.40;99.90
3208;DHT22;1616;52.394;9.756;2023-11-21T02:28:00;9.40;99.90
3208;DHT22;1616;52.394;9.756;2023-11-21T02:30:27;9.40;99.90
3208;DHT22;1616;52.394;9.756;2023-11-21T02:32:53;9.40;99.90
3208;DHT22;1616;52.394;9.756;2023-11-21T02:35:20;9.40;99.90
3208;DHT22;1616;52.394;9.756;2023-11-21T02:37:49;9.40;99.90
3208;DHT22;1616;52.394;9.756;2023-11-21T02:40:16;9.40;99.90
3208;DHT22;1616;52.394;9.756;2023-11-21T02:42:47;9.40;99.90
3208;DHT22;1616;52.394;9.756;2023-11-21T02:45:15;9.40;99.90
3208;DHT22;1616;52.394;9.756;2023-11-21T02:47:43;9.40;99.90
3208;DHT22;1616;52.394;9.756;2023-11-21T02:50:09;9.40;99.90
3208;DHT22;1616;52.394;9.756;2023-11-21T02:52:35;9.40;99.90
3208;DHT22;1616;52.394;9.756;2023-11-21T02:55:04;9.40;99.90
3208;DHT22;1616;52.394;9.756;2023-11-21T02:57:31;9.40;99.90
3208;DHT22;1616;52.394;9.756;2023-11-21T02:59:56;9.40;99.90
3208;DHT22;1616;52.394;9.756;2023-11-21T03:02:22;9.40;99.90
3208;DHT22;1616;52.394;9.756;2023-11-21T03:04:48;9.40;99.90
3208;DHT22;1616;52.394;9.756;2023-11-21T03:07:15;9.50;99.90
3208;DHT22;1616;52.394;9.756;2023-11-21T03:09:41;9.50;99.90
3208;DHT22;1616;52.394;9.756;2023-11-21T03:12:07;9.50;99.90
3208;DHT22;1616;52.394;9.756;2023-11-21T03:14:32;9.50;99.90
3208;DHT22;1616;52.394;9.756;2023-11-21T03:16:58;9.50;99.90
3208;DHT22;1616;52.394;9.756;2023-11-21T03:19:24;9.50;99.90
3208;DHT22;1616;52.394;9.756;2023-11-21T03:21:50;9.60;99.90
3208;DHT22;1616;52.394;9.756;2023-11-21T03:24:19;9.60;99.90
3208;DHT22;1616;52.394;9.756;2023-11-21T03:26:48;9.60;99.90
3208;DHT22;1616;52.394;9.756;2023-11-21T03:29:14;9.60;99.90
3208;DHT22;1616;52.394;9.756;2023-11-21T03:31:40;9.60;99.90
3208;DHT22;1616;52.394;9.756;2023-11-21T03:34:06;9.70;99.90
3208;DHT22;1616;52.394;9.756;2023-11-21T03:36:32;9.70;99.90
3208;DHT22;1616;52.394;9.756;2023-11-21T03:38:58;9.70;99.90
3208;DHT22;1616;52.394;9.756;2023-11-21T03:41:23;9.60;99.90
3208;DHT22;1616;52.394;9.756;2023-11-21T03:43:49;9.60;99.90
3208;DHT22;1616;52.394;9.756;2023-11-21T03:46:15;9.60;99.90
3208;DHT22;1616;52.394;9.756;2023-11-21T03:48:41;9.60;99.90
3208;DHT22;1616;52.394;9.756;2023-11-21T03:51:07;9.70;99.90
3208;DHT22;1616;52.394;9.756;2023-11-21T03:53:33;9.60;99.90
3208;DHT22;1616;52.394;9.756;2023-11-21T03:56:02;9.60;99.90
3208;DHT22;1616;52.394;9.756;2023-11-21T03:58:29;9.60;99.90
3208;DHT22;1616;52.394;9.756;2023-11-21T04:00:55;9.60;99.90
3208;DHT22;1616;52.394;9.756;2023-11-21T04:03:20;9.60;99.90
3208;DHT22;1616;52.394;9.756;2023-11-21T04:05:46;9.60;99.90
3208;DHT22;1616;52.394;9.756;2023-11-21T04:08:12;9.60;99.90
3208;DHT22;1616;52.394;9.756;2023-11-21T04:10:38;9.60;99.90
3208;DHT22;1616;52.394;9.756;2023-11-21T04:13:05;9.60;99.90
3208;DHT22;1616;52.394;9.756;2023-11-21T04:15:32;9.60;99.90
3208;DHT22;1616;52.394;9.756;2023-11-21T04:17:58;9.60;99.90
3208;DHT22;1616;52.394;9.756;2023-11-21T04:20:24;9.60;99.90
3208;DHT22;1616;52.394;9.756;2023-11-21T04:22:50;9.60;99.90
3208;DHT22;1616;52.394;9.756;2023-11-21T04:25:16;9.60;99.90
3208;DHT22;1616;52.394;9.756;2023-11-21T04:27:43;9.60;99.90
3208;DHT22;1616;52.394;9.756;2023-11-21T04:30:10;9.60;99.90
3208;DHT22;1616;52.394;9.756;2023-11-21T04:32:37;9.60;99.90
3208;DHT22;1616;52.394;9.756;2023-11-21T04:35:02;9.60;99.90
3208;DHT22;1616;52.394;9.756;2023-11-21T04:37:29;9.70;99.90
3208;DHT22;1616;52.394;9.756;2023-11-21T04:39:55;9.60;99.90
3208;DHT22;1616;52.394;9.756;2023-11-21T04:42:20;9.60;99.90
3208;DHT22;1616;52.394;9.756;2023-11-21T04:44:46;9.60;99.90
3208;DHT22;1616;52.394;9.756;2023-11-21T04:47:12;9.60;99.90
3208;DHT22;1616;52.394;9.756;2023-11-21T04:49:41;9.60;99.90
3208;DHT22;1616;52.394;9.756;2023-11-21T04:52:07;9.60;99.90
3208;DHT22;1616;52.394;9.756;2023-11-21T04:54:35;9.60;99.90
3208;DHT22;1616;52.394;9.756;2023-11-21T04:57:01;9.60;99.90
3208;DHT22;1616;52.394;9.756;2023-11-21T04:59:27;9.60;99.90
3208;DHT22;1616;52.394;9.756;2023-11-21T05:01:53;9.60;99.90
3208;DHT22;1616;52.394;9.756;2023-11-21T05:04:20;9.60;99.90
3208;DHT22;1616;52.394;9.756;2023-11-21T05:06:47;9.60;99.90
3208;DHT22;1616;52.394;9.756;2023-11-21T05:09:13;9.60;99.90
3208;DHT22;1616;52.394;9.756;2023-11-21T05:11:39;10.00;99.90
3208;DHT22;1616;52.394;9.756;2023-11-21T05:14:06;9.60;99.90
3208;DHT22;1616;52.394;9.756;2023-11-21T05:16:33;9.60;99.90
3208;DHT22;1616;52.394;9.756;2023-11-21T05:18:59;9.60;99.90
3208;DHT22;1616;52.394;9.756;2023-11-21T05:21:30;9.60;99.90
3208;DHT22;1616;52.394;9.756;2023-11-21T05:23:58;9.60;99.90
3208;DHT22;1616;52.394;9.756;2023-11-21T05:26:24;9.60;99.90
3208;DHT22;1616;52.394;9.756;2023-11-21T05:28:49;9.60;99.90
3208;DHT22;1616;52.394;9.756;2023-11-21T05:31:15;9.60;99.90
3208;DHT22;1616;52.394;9.756;2023-11-21T05:33:41;9.60;99.90
3208;DHT22;1616;52.394;9.756;2023-11-21T05:36:07;9.50;99.90
3208;DHT22;1616;52.394;9.756;2023-11-21T05:38:35;9.50;99.90
3208;DHT22;1616;52.394;9.756;2023-11-21T05:41:02;9.50;99.90
3208;DHT22;1616;52.394;9.756;2023-11-21T05:43:29;9.50;99.90
3208;DHT22;1616;52.394;9.756;2023-11-21T05:45:56;9.50;99.90
3208;DHT22;1616;52.394;9.756;2023-11-21T05:48:22;9.50;99.90
3208;DHT22;1616;52.394;9.756;2023-11-21T05:50:49;9.50;99.90
3208;DHT22;1616;52.394;9.756;2023-11-21T05:53:15;9.60;99.90
3208;DHT22;1616;52.394;9.756;2023-11-21T05:55:41;9.50;99.90
3208;DHT22;1616;52.394;9.756;2023-11-21T05:58:08;9.50;99.90
3208;DHT22;1616;52.394;9.756;2023-11-21T06:00:34;9.60;99.90
3208;DHT22;1616;52.394;9.756;2023-11-21T06:03:01;9.60;99.90
3208;DHT22;1616;52.394;9.756;2023-11-21T06:05:27;9.60;99.90
3208;DHT22;1616;52.394;9.756;2023-11-21T06:07:54;9.60;99.90
3208;DHT22;1616;52.394;9.756;2023-11-21T06:10:22;9.60;99.90
3208;DHT22;1616;52.394;9.756;2023-11-21T06:12:49;9.60;99.90
3208;DHT22;1616;52.394;9.756;2023-11-21T06:15:15;9.60;99.90
3208;DHT22;1616;52.394;9.756;2023-11-21T06:17:42;9.60;99.90
3208;DHT22;1616;52.394;9.756;2023-11-21T06:20:09;9.60;99.90
3208;DHT22;1616;52.394;9.756;2023-11-21T06:22:37;9.60;99.90
3208;DHT22;1616;52.394;9.756;2023-11-21T06:25:04;9.60;99.90
3208;DHT22;1616;52.394;9.756;2023-11-21T06:27:32;9.60;99.90
3208;DHT22;1616;52.394;9.756;2023-11-21T06:29:58;9.60;99.90
3208;DHT22;1616;52.394;9.756;2023-11-21T06:32:24;9.60;99.90
3208;DHT22;1616;52.394;9.756;2023-11-21T06:34:49;9.60;99.90
3208;DHT22;1616;52.394;9.756;2023-11-21T06:37:15;9.60;99.90
3208;DHT22;1616;52.394;9.756;2023-11-21T06:39:42;9.50;99.90
3208;DHT22;1616;52.394;9.756;2023-11-21T06:42:08;9.40;99.90
3208;DHT22;1616;52.394;9.756;2023-11-21T06:44:33;9.30;99.90
3208;DHT22;1616;52.394;9.756;2023-11-21T06:47:01;9.10;99.90
3208;DHT22;1616;52.394;9.756;2023-11-21T06:49:26;9.00;99.90
3208;DHT22;1616;52.394;9.756;2023-11-21T06:51:52;8.80;99.90
3208;DHT22;1616;52.394;9.756;2023-11-21T06:54:20;8.80;99.90
3208;DHT22;1616;52.394;9.756;2023-11-21T06:56:47;8.70;99.90
3208;DHT22;1616;52.394;9.756;2023-11-21T06:59:12;8.60;99.90
3208;DHT22;1616;52.394;9.756;2023-11-21T07:01:38;8.50;99.90
3208;DHT22;1616;52.394;9.756;2023-11-21T07:04:06;8.40;99.90
3208;DHT22;1616;52.394;9.756;2023-11-21T07:06:32;8.40;99.90
3208;DHT22;1616;52.394;9.756;2023-11-21T07:08:58;8.40;99.90
3208;DHT22;1616;52.394;9.756;2023-11-21T07:11:24;8.30;99.90
3208;DHT22;1616;52.394;9.756;2023-11-21T07:13:50;8.30;99.90
3208;DHT22;1616;52.394;9.756;2023-11-21T07:16:16;8.30;99.90
3208;DHT22;1616;52.394;9.756;2023-11-21T07:18:42;8.30;99.90
3208;DHT22;1616;52.394;9.756;2023-11-21T07:21:08;8.20;99.90
3208;DHT22;1616;52.394;9.756;2023-11-21T07:23:34;8.20;99.90
3208;DHT22;1616;52.394;9.756;2023-11-21T07:25:59;8.20;99.90
3208;DHT22;1616;52.394;9.756;2023-11-21T07:28:25;8.20;99.90
3208;DHT22;1616;52.394;9.756;2023-11-21T07:30:51;8.20;99.90
3208;DHT22;1616;52.394;9.756;2023-11-21T07:33:18;8.20;99.90
3208;DHT22;1616;52.394;9.756;2023-11-21T07:35:43;8.20;99.90
3208;DHT22;1616;52.394;9.756;2023-11-21T07:38:09;8.20;99.90
3208;DHT22;1616;52.394;9.756;2023-11-21T07:40:35;8.20;99.90
3208;DHT22;1616;52.394;9.756;2023-11-21T07:43:01;8.10;99.90
3208;DHT22;1616;52.394;9.756;2023-11-21T07:45:27;8.10;99.90
3208;DHT22;1616;52.394;9.756;2023-11-21T07:47:55;8.10;99.90
3208;DHT22;1616;52.394;9.756;2023-11-21T07:50:22;8.10;99.90
3208;DHT22;1616;52.394;9.756;2023-11-21T07:52:48;8.10;99.90
3208;DHT22;1616;52.394;9.756;2023-11-21T07:55:15;8.10;99.90
3208;DHT22;1616;52.394;9.756;2023-11-21T07:57:41;8.00;99.90
3208;DHT22;1616;52.394;9.756;2023-11-21T08:00:07;8.00;99.90
3208;DHT22;1616;52.394;9.756;2023-11-21T08:02:35;8.00;99.90
3208;DHT22;1616;52.394;9.756;2023-11-21T08:05:01;8.00;99.90
3208;DHT22;1616;52.394;9.756;2023-11-21T08:07:27;8.00;99.90
3208;DHT22;1616;52.394;9.756;2023-11-21T08:09:52;8.00;99.90
3208;DHT22;1616;52.394;9.756;2023-11-21T08:12:18;7.90;99.90
3208;DHT22;1616;52.394;9.756;2023-11-21T08:14:45;7.90;99.90
3208;DHT22;1616;52.394;9.756;2023-11-21T08:17:11;7.90;99.90
3208;DHT22;1616;52.394;9.756;2023-11-21T08:19:37;7.90;99.90
3208;DHT22;1616;52.394;9.756;2023-11-21T08:22:03;7.90;99.90
3208;DHT22;1616;52.394;9.756;2023-11-21T08:24:29;7.90;99.90
3208;DHT22;1616;52.394;9.756;2023-11-21T08:26:54;7.90;99.90
3208;DHT22;1616;52.394;9.756;2023-11-21T08:29:21;8.00;99.90
3208;DHT22;1616;52.394;9.756;2023-11-21T08:31:48;8.00;99.90
3208;DHT22;1616;52.394;9.756;2023-11-21T08:34:14;8.00;99.90
3208;DHT22;1616;52.394;9.756;2023-11-21T08:36:44;8.00;99.90
3208;DHT22;1616;52.394;9.756;2023-11-21T08:39:10;8.10;99.90
3208;DHT22;1616;52.394;9.756;2023-11-21T08:41:36;8.10;99.90
3208;DHT22;1616;52.394;9.756;2023-11-21T08:44:02;8.10;99.90
3208;DHT22;1616;52.394;9.756;2023-11-21T08:46:33;8.10;99.90
3208;DHT22;1616;52.394;9.756;2023-11-21T08:49:01;8.20;99.90
3208;DHT22;1616;52.394;9.756;2023-11-21T08:51:27;8.30;99.90
3208;DHT22;1616;52.394;9.756;2023-11-21T08:53:52;8.40;99.90
3208;DHT22;1616;52.394;9.756;2023-11-21T08:56:18;8.40;99.90
3208;DHT22;1616;52.394;9.756;2023-11-21T08:58:51;8.40;99.90
3208;DHT22;1616;52.394;9.756;2023-11-21T09:01:18;8.50;99.90
3208;DHT22;1616;52.394;9.756;2023-11-21T09:03:44;8.50;99.90
3208;DHT22;1616;52.394;9.756;2023-11-21T09:06:09;8.60;99.90
3208;DHT22;1616;52.394;9.756;2023-11-21T09:08:35;8.60;99.90
3208;DHT22;1616;52.394;9.756;2023-11-21T09:11:01;8.60;99.90
3208;DHT22;1616;52.394;9.756;2023-11-21T09:13:28;8.70;99.90
3208;DHT22;1616;52.394;9.756;2023-11-21T09:15:55;8.80;99.90
3208;DHT22;1616;52.394;9.756;2023-11-21T09:18:20;8.80;99.90
3208;DHT22;1616;52.394;9.756;2023-11-21T09:20:46;8.90;99.90
3208;DHT22;1616;52.394;9.756;2023-11-21T09:23:12;8.90;99.90
3208;DHT22;1616;52.394;9.756;2023-11-21T09:25:38;8.90;99.90
3208;DHT22;1616;52.394;9.756;2023-11-21T09:28:05;8.80;99.90
3208;DHT22;1616;52.394;9.756;2023-11-21T09:30:34;8.80;99.90
3208;DHT22;1616;52.394;9.756;2023-11-21T09:33:01;8.70;99.90
3208;DHT22;1616;52.394;9.756;2023-11-21T09:35:27;8.80;99.90
3208;DHT22;1616;52.394;9.756;2023-11-21T09:37:54;8.80;99.90
3208;DHT22;1616;52.394;9.756;2023-11-21T09:40:22;8.80;99.90
3208;DHT22;1616;52.394;9.756;2023-11-21T09:42:55;8.80;99.90
3208;DHT22;1616;52.394;9.756;2023-11-21T09:45:35;8.90;99.90
3208;DHT22;1616;52.394;9.756;2023-11-21T09:48:01;8.90;99.90
3208;DHT22;1616;52.394;9.756;2023-11-21T09:50:27;8.90;99.90
3208;DHT22;1616;52.394;9.756;2023-11-21T09:53:11;9.00;99.90
3208;DHT22;1616;52.394;9.756;2023-11-21T09:55:42;9.00;99.90
3208;DHT22;1616;52.394;9.756;2023-11-21T09:58:10;9.10;99.90
3208;DHT22;1616;52.394;9.756;2023-11-21T10:00:45;9.10;99.90
3208;DHT22;1616;52.394;9.756;2023-11-21T10:03:11;9.10;99.90
3208;DHT22;1616;52.394;9.756;2023-11-21T10:05:39;9.20;99.90
3208;DHT22;1616;52.394;9.756;2023-11-21T10:08:08;9.20;99.90
3208;DHT22;1616;52.394;9.756;2023-11-21T10:10:36;9.30;99.90
3208;DHT22;1616;52.394;9.756;2023-11-21T10:13:04;9.30;99.90
3208;DHT22;1616;52.394;9.756;2023-11-21T10:15:34;9.30;99.90
3208;DHT22;1616;52.394;9.756;2023-11-21T10:18:02;9.40;99.90
3208;DHT22;1616;52.394;9.756;2023-11-21T10:20:28;9.40;99.90
3208;DHT22;1616;52.394;9.756;2023-11-21T10:22:54;9.40;99.90
3208;DHT22;1616;52.394;9.756;2023-11-21T10:25:22;9.40;99.90
3208;DHT22;1616;52.394;9.756;2023-11-21T10:27:48;9.40;99.90
3208;DHT22;1616;52.394;9.756;2023-11-21T10:30:17;9.40;99.90
3208;DHT22;1616;52.394;9.756;2023-11-21T10:32:44;9.40;99.90
3208;DHT22;1616;52.394;9.756;2023-11-21T10:35:10;9.40;99.90
3208;DHT22;1616;52.394;9.756;2023-11-21T10:37:37;9.40;99.90
3208;DHT22;1616;52.394;9.756;2023-11-21T10:40:10;9.40;99.90
3208;DHT22;1616;52.394;9.756;2023-11-21T10:42:39;9.40;99.90
3208;DHT22;1616;52.394;9.756;2023-11-21T10:45:06;9.50;99.90
3208;DHT22;1616;52.394;9.756;2023-11-21T10:47:39;9.50;99.90
3208;DHT22;1616;52.394;9.756;2023-11-21T10:50:06;9.50;99.90
3208;DHT22;1616;52.394;9.756;2023-11-21T10:52:34;9.50;99.90
3208;DHT22;1616;52.394;9.756;2023-11-21T10:55:01;9.50;99.90
3208;DHT22;1616;52.394;9.756;2023-11-21T10:57:29;9.50;99.90
3208;DHT22;1616;52.394;9.756;2023-11-21T10:59:56;9.60;99.90
3208;DHT22;1616;52.394;9.756;2023-11-21T11:02:24;9.60;99.90
3208;DHT22;1616;52.394;9.756;2023-11-21T11:04:54;9.60;99.90
3208;DHT22;1616;52.394;9.756;2023-11-21T11:07:26;9.60;99.90
3208;DHT22;1616;52.394;9.756;2023-11-21T11:09:56;9.60;99.90
3208;DHT22;1616;52.394;9.756;2023-11-21T11:12:24;9.60;99.90
3208;DHT22;1616;52.394;9.756;2023-11-21T11:14:51;9.60;99.90
3208;DHT22;1616;52.394;9.756;2023-11-21T11:17:19;9.70;99.90
3208;DHT22;1616;52.394;9.756;2023-11-21T11:19:47;9.70;99.90
3208;DHT22;1616;52.394;9.756;2023-11-21T11:28:14;9.90;99.90
3208;DHT22;1616;52.394;9.756;2023-11-21T11:31:04;10.00;99.90
3208;DHT22;1616;52.394;9.756;2023-11-21T11:36:10;10.20;99.90
3208;DHT22;1616;52.394;9.756;2023-11-21T11:38:39;10.40;99.90
3208;DHT22;1616;52.394;9.756;2023-11-21T11:41:10;10.40;99.90
3208;DHT22;1616;52.394;9.756;2023-11-21T11:43:36;10.50;99.90
3208;DHT22;1616;52.394;9.756;2023-11-21T11:46:11;10.50;99.90
3208;DHT22;1616;52.394;9.756;2023-11-21T11:48:40;10.50;99.90
3208;DHT22;1616;52.394;9.756;2023-11-21T11:51:10;10.50;99.90
3208;DHT22;1616;52.394;9.756;2023-11-21T11:53:41;10.40;99.90
3208;DHT22;1616;52.394;9.756;2023-11-21T11:58:49;10.30;99.90
3208;DHT22;1616;52.394;9.756;2023-11-21T12:01:19;10.20;99.90
3208;DHT22;1616;52.394;9.756;2023-11-21T12:04:10;10.20;99.90
3208;DHT22;1616;52.394;9.756;2023-11-21T12:06:34;10.10;99.90
3208;DHT22;1616;52.394;9.756;2023-11-21T12:09:03;10.10;99.90
3208;DHT22;1616;52.394;9.756;2023-11-21T12:11:32;10.10;99.90
3208;DHT22;1616;52.394;9.756;2023-11-21T12:13:58;10.20;99.90
3208;DHT22;1616;52.394;9.756;2023-11-21T12:16:26;10.20;99.90
3208;DHT22;1616;52.394;9.756;2023-11-21T12:18:55;10.30;99.90
3208;DHT22;1616;52.394;9.756;2023-11-21T12:21:21;10.30;99.90
3208;DHT22;1616;52.394;9.756;2023-11-21T12:23:47;10.30;99.90
3208;DHT22;1616;52.394;9.756;2023-11-21T12:26:14;10.30;99.90
3208;DHT22;1616;52.394;9.756;2023-11-21T12:28:40;10.30;99.90
3208;DHT22;1616;52.394;9.756;2023-11-21T12:31:06;10.20;99.90
3208;DHT22;1616;52.394;9.756;2023-11-21T12:33:33;10.30;99.90
3208;DHT22;1616;52.394;9.756;2023-11-21T12:36:00;10.20;99.90
3208;DHT22;1616;52.394;9.756;2023-11-21T12:38:25;10.20;99.90
3208;DHT22;1616;52.394;9.756;2023-11-21T12:40:58;10.20;99.90
3208;DHT22;1616;52.394;9.756;2023-11-21T12:43:24;10.20;99.90
3208;DHT22;1616;52.394;9.756;2023-11-21T12:45:50;10.20;99.90
3208;DHT22;1616;52.394;9.756;2023-11-21T12:48:15;10.20;99.90
3208;DHT22;1616;52.394;9.756;2023-11-21T12:50:48;10.10;99.90
3208;DHT22;1616;52.394;9.756;2023-11-21T12:53:18;10.10;99.90
3208;DHT22;1616;52.394;9.756;2023-11-21T12:55:45;10.00;99.90
3208;DHT22;1616;52.394;9.756;2023-11-21T12:58:15;9.90;99.90
3208;DHT22;1616;52.394;9.756;2023-11-21T13:00:48;9.90;99.90
3208;DHT22;1616;52.394;9.756;2023-11-21T13:03:16;9.80;99.90
3208;DHT22;1616;52.394;9.756;2023-11-21T13:05:44;9.80;99.90
3208;DHT22;1616;52.394;9.756;2023-11-21T13:08:11;9.80;99.90
3208;DHT22;1616;52.394;9.756;2023-11-21T13:10:40;9.80;99.90
3208;DHT22;1616;52.394;9.756;2023-11-21T13:13:09;9.80;99.90
3208;DHT22;1616;52.394;9.756;2023-11-21T13:15:39;9.80;99.90
3208;DHT22;1616;52.394;9.756;2023-11-21T13:18:07;9.80;99.90
3208;DHT22;1616;52.394;9.756;2023-11-21T13:20:33;9.80;99.90
3208;DHT22;1616;52.394;9.756;2023-11-21T13:22:59;9.80;99.90
3208;DHT22;1616;52.394;9.756;2023-11-21T13:25:28;9.80;99.90
3208;DHT22;1616;52.394;9.756;2023-11-21T13:27:58;9.80;99.90
3208;DHT22;1616;52.394;9.756;2023-11-21T13:30:25;9.80;99.90
3208;DHT22;1616;52.394;9.756;2023-11-21T13:33:00;9.90;99.90
3208;DHT22;1616;52.394;9.756;2023-11-21T13:35:32;9.80;99.90
3208;DHT22;1616;52.394;9.756;2023-11-21T13:38:11;9.90;99.90
3208;DHT22;1616;52.394;9.756;2023-11-21T13:40:38;9.80;99.90
3208;DHT22;1616;52.394;9.756;2023-11-21T13:43:16;9.80;99.90
3208;DHT22;1616;52.394;9.756;2023-11-21T13:45:43;9.70;99.90
3208;DHT22;1616;52.394;9.756;2023-11-21T13:48:11;9.70;99.90
3208;DHT22;1616;52.394;9.756;2023-11-21T13:50:47;9.60;99.90
3208;DHT22;1616;52.394;9.756;2023-11-21T13:53:32;9.60;99.90
3208;DHT22;1616;52.394;9.756;2023-11-21T13:55:58;9.50;99.90
3208;DHT22;1616;52.394;9.756;2023-11-21T13:58:24;9.40;99.90
3208;DHT22;1616;52.394;9.756;2023-11-21T14:01:01;9.40;99.90
3208;DHT22;1616;52.394;9.756;2023-11-21T14:03:31;9.40;99.90
3208;DHT22;1616;52.394;9.756;2023-11-21T14:06:11;9.30;99.90
3208;DHT22;1616;52.394;9.756;2023-11-21T14:08:46;9.30;99.90
3208;DHT22;1616;52.394;9.756;2023-11-21T14:11:12;9.20;99.90
3208;DHT22;1616;52.394;9.756;2023-11-21T14:13:44;9.10;99.90
3208;DHT22;1616;52.394;9.756;2023-11-21T14:16:15;9.10;99.90
3208;DHT22;1616;52.394;9.756;2023-11-21T14:18:42;9.00;99.90
3208;DHT22;1616;52.394;9.756;2023-11-21T14:21:23;9.00;99.90
3208;DHT22;1616;52.394;9.756;2023-11-21T14:23:48;9.00;99.90
3208;DHT22;1616;52.394;9.756;2023-11-21T14:26:14;9.00;99.90
3208;DHT22;1616;52.394;9.756;2023-11-21T14:28:42;8.90;99.90
3208;DHT22;1616;52.394;9.756;2023-11-21T14:31:08;8.90;99.90
3208;DHT22;1616;52.394;9.756;2023-11-21T14:33:39;8.80;99.90
3208;DHT22;1616;52.394;9.756;2023-11-21T14:36:06;8.70;99.90
3208;DHT22;1616;52.394;9.756;2023-11-21T14:38:35;8.60;99.90
3208;DHT22;1616;52.394;9.756;2023-11-21T14:41:01;8.50;99.90
3208;DHT22;1616;52.394;9.756;2023-11-21T14:43:26;8.50;99.90
3208;DHT22;1616;52.394;9.756;2023-11-21T14:45:55;8.40;99.90
3208;DHT22;1616;52.394;9.756;2023-11-21T14:48:23;8.40;99.90
3208;DHT22;1616;52.394;9.756;2023-11-21T14:51:09;8.30;99.90
3208;DHT22;1616;52.394;9.756;2023-11-21T14:53:41;8.20;99.90
3208;DHT22;1616;52.394;9.756;2023-11-21T14:56:20;8.10;99.90
3208;DHT22;1616;52.394;9.756;2023-11-21T14:58:56;8.10;99.90
3208;DHT22;1616;52.394;9.756;2023-11-21T15:01:24;8.00;99.90
3208;DHT22;1616;52.394;9.756;2023-11-21T15:04:08;7.90;99.90
3208;DHT22;1616;52.394;9.756;2023-11-21T15:06:41;7.90;99.90
3208;DHT22;1616;52.394;9.756;2023-11-21T15:09:08;7.80;99.90
3208;DHT22;1616;52.394;9.756;2023-11-21T15:11:35;7.70;99.90
3208;DHT22;1616;52.394;9.756;2023-11-21T15:14:02;7.70;99.90
3208;DHT22;1616;52.394;9.756;2023-11-21T15:16:34;7.70;99.90
3208;DHT22;1616;52.394;9.756;2023-11-21T15:19:07;7.60;99.90
3208;DHT22;1616;52.394;9.756;2023-11-21T15:21:36;7.60;99.90
3208;DHT22;1616;52.394;9.756;2023-11-21T15:24:02;7.60;99.90
3208;DHT22;1616;52.394;9.756;2023-11-21T15:26:29;7.60;99.90
3208;DHT22;1616;52.394;9.756;2023-11-21T15:28:55;7.60;99.90
3208;DHT22;1616;52.394;9.756;2023-11-21T15:31:21;7.60;99.90
3208;DHT22;1616;52.394;9.756;2023-11-21T15:33:51;7.60;99.90
3208;DHT22;1616;52.394;9.756;2023-11-21T15:36:18;7.60;99.90
3208;DHT22;1616;52.394;9.756;2023-11-21T15:38:45;7.60;99.90
3208;DHT22;1616;52.394;9.756;2023-11-21T15:41:11;7.60;99.90
3208;DHT22;1616;52.394;9.756;2023-11-21T15:43:37;7.60;99.90
3208;DHT22;1616;52.394;9.756;2023-11-21T15:46:03;7.60;99.90
3208;DHT22;1616;52.394;9.756;2023-11-21T15:48:34;7.60;99.90
3208;DHT22;1616;52.394;9.756;2023-11-21T15:51:01;7.60;99.90
3208;DHT22;1616;52.394;9.756;2023-11-21T15:53:28;7.60;99.90
3208;DHT22;1616;52.394;9.756;2023-11-21T15:55:54;7.60;99.90
3208;DHT22;1616;52.394;9.756;2023-11-21T15:58:19;7.60;99.90
3208;DHT22;1616;52.394;9.756;2023-11-21T16:00:45;7.60;99.90
3208;DHT22;1616;52.394;9.756;2023-11-21T16:03:10;7.60;99.90
3208;DHT22;1616;52.394;9.756;2023-11-21T16:05:37;7.60;99.90
3208;DHT22;1616;52.394;9.756;2023-11-21T16:08:04;7.60;99.90
3208;DHT22;1616;52.394;9.756;2023-11-21T16:10:29;7.60;99.90
3208;DHT22;1616;52.394;9.756;2023-11-21T16:12:55;7.60;99.90
3208;DHT22;1616;52.394;9.756;2023-11-21T16:15:22;7.60;99.90
3208;DHT22;1616;52.394;9.756;2023-11-21T16:17:48;7.60;99.90
3208;DHT22;1616;52.394;9.756;2023-11-21T16:20:14;7.60;99.90
3208;DHT22;1616;52.394;9.756;2023-11-21T16:22:41;7.60;99.90
3208;DHT22;1616;52.394;9.756;2023-11-21T16:25:08;7.60;99.90
3208;DHT22;1616;52.394;9.756;2023-11-21T16:27:38;7.60;99.90
3208;DHT22;1616;52.394;9.756;2023-11-21T16:30:05;7.70;99.90